KLAR/LAR METAR and TAF weather

Enter ICAO airport designator
Station Type Date Time Source
KLAR METAR 2022/01/23 10:53 UTC NOAA

KLAR 231053Z AUTO 17006KT 10SM CLR M12/M16 A3019 RMK AO2 SLP271 T11171156


Station Type Date Time Source
KLAR Decoded METAR 2022/01/23 10:53 UTC NOAA

LARAMIE REGIONAL AIRPORT, WY, United States (KLAR) 41-19N 105-40W 2216M
Jan 23, 2022 - 05:53 AM EST / 2022.01.23 1053 UTC
Wind: from the S (170 degrees) at 7 MPH (6 KT):0
Visibility: 10 mile(s):0
Sky conditions: clear
Temperature: 10.9 F (-11.7 C)
Windchill: 0 F (-18 C):1
Dew Point: 3.9 F (-15.6 C)
Relative Humidity: 72%
Pressure (altimeter): 30.19 in. Hg (1022 hPa)
ob: KLAR 231053Z AUTO 17006KT 10SM CLR M12/M16 A3019 RMK AO2 SLP271 T11171156
cycle: 11

Station Type Date Time Source
KLAR TAF 2022/01/23 12:22 UTC NOAA

TAF KLAR 231120Z 2312/2412 20006KT P6SM FEW200
FM231800 23008KT P6SM SKC
FM232100 28010KT P6SM SKC
FM240000 25010KT P6SM SKC
FM240700 28010KT P6SM FEW200 WS020/31035KT

Example: see airport list